Аэропорт
Полярный (UERP)

 UERP / PYJ
ЗЦ Хабаровск
Якутск (UEEE)
Якутск (UEEE)
 66.40040, 112.03000  / 1660 ft

 UERP 092000Z 24004MPS 4200 -SHSN BKN015CB OVC100 M02/M02 Q1010 R17/820155 NOSIG RMK QFE713
 TAF UERP 091400Z 0915/1015 21006G11MPS 9999 SCT025CB BKN100 TEMPO 0915/0921 5000 -SHSN SCT015CB BKN100 BECMG 1000/1002 26007G12MPS
UERP_j_0220
показать схемы
Название сценария Тип сценария Flight Simulator 9 Flight Simulator X Prepar3D v2 Prepar3D v3 Prepar3D v4 xPlane
UERP FS9 бесплатный
UERP_P3D_v.4.4 бесплатный


2020 © VATRUS division (Privacy Policy)